Current Weather Conditions: station LYKV

sailwx.info

Wind from 140 at 9 knots

Air temperature 2.0° C
Visibility: greater than 5.4 NM
Dewpoint 2.0° C

Last reported at 2014-Nov-27 16:30 UTC.
Time now 2014-Nov-27 18:16 UTC

Location: N 43°49' E 020°35'.
View on Google Maps.

See reports from other nearby stations

  
Tides and Currents Weather Stations Pressure Air Temp Water Temp Dewpoint Dewpoint Depression Visibility Wind Speed Wind Dir Waves Ship Positions
date/time (UTC)wind fromknots sea level pressurealtimeterstation pressurevisibilityair tempwater tempwave heightnotes
2014-Nov-27 17:30 150 9 5.4 2.0
2014-Nov-27 17:00 140 7 5.4 2.0
2014-Nov-27 16:30 140 9 5.4 2.0
2014-Nov-27 16:00 150 7 5.4 2.0
2014-Nov-27 15:30 140 9 3.2 2.0
2014-Nov-27 15:00 140 8 3.2 2.0
2014-Nov-27 14:30 140 12 3.2 3.0
2014-Nov-27 14:00 140 9 2.7 3.0 Light rain. Mist.
2014-Nov-27 13:30 140 10 2.2 3.0 Mist.
2014-Nov-27 13:00 140 8 1.6 2.0 Light rain. Mist.
2014-Nov-27 12:30 140 10 1.6 2.0 Mist.
2014-Nov-27 12:00 150 9 2.2 3.0 Light rain. Mist.
2014-Nov-27 11:30 150 9 2.2 3.0 Light rain. Mist.
2014-Nov-27 11:00 150 9 2.7 3.0 Mist.
2014-Nov-27 10:30 150 9 3.2 2.0
2014-Nov-27 10:00 140 7 3.2 2.0
2014-Nov-27 09:30 140 6 3.2 2.0
2014-Nov-27 09:00 140 4 3.8 2.0
2014-Nov-27 08:30 130 6 3.8 2.0
2014-Nov-27 08:00 130 6 2.7 2.0 Mist.
2014-Nov-27 07:30 140 6 2.2 2.0 Light rain. Mist.
2014-Nov-27 07:00 150 4 2.2 1.0 Light rain. Mist.
2014-Nov-27 06:30 2.2 1.0 Light rain. Mist.
2014-Nov-27 06:00 4.3 1.0
2014-Nov-27 05:30 4.3 1.0
2014-Nov-27 05:00 5.4 1.0
2014-Nov-27 04:30 5.4 1.0
2014-Nov-27 04:00 5.4 1.0
2014-Nov-27 03:30 5.4 1.0
2014-Nov-27 03:00 5.4 1.0
2014-Nov-27 02:30 1.0
2014-Nov-27 02:00 1.0
2014-Nov-27 01:30 090 3 -0.0
2014-Nov-27 01:00 5.4-0.0
2014-Nov-27 00:30 -0.0
2014-Nov-27 00:00 5.4-0.0
2014-Nov-26 23:30 -0.0
2014-Nov-26 23:00 5.4-0.0
2014-Nov-26 22:30 -2.0
2014-Nov-26 22:00 5.4-2.0
2014-Nov-26 21:30 -2.0
2014-Nov-26 21:00 -2.0
2014-Nov-26 20:30 -2.0
2014-Nov-26 20:00 330 1 5.4-2.0
2014-Nov-26 19:30 -2.0
2014-Nov-26 19:00 320 1 5.4-2.0
2014-Nov-26 18:30 350 2 -1.0
2014-Nov-26 18:00 340 2 -1.0
2014-Nov-26 17:30 360 3 -0.0
2014-Nov-26 17:00 5.4-0.0
2014-Nov-26 16:30 1.0
2014-Nov-26 16:00 100 4 2.0
2014-Nov-26 15:30 110 4 4.3 2.0
2014-Nov-26 15:00 140 8 4.3 2.0
2014-Nov-26 14:30 150 10 4.3 3.0
2014-Nov-26 14:00 150 9 4.3 4.0
2014-Nov-26 13:30 150 11 4.3 5.0
2014-Nov-26 13:00 150 13 4.3 5.0
2014-Nov-26 12:30 150 11 4.3 5.0
2014-Nov-26 12:00 150 11 4.3 6.0
2014-Nov-26 11:30 150 10 4.3 6.0
2014-Nov-26 11:00 150 8 3.2 6.0
2014-Nov-26 10:30 150 8 3.2 5.0
2014-Nov-26 10:00 160 6 3.2 5.0
2014-Nov-26 09:30 150 7 3.2 4.0
2014-Nov-26 09:00 160 6 2.7 4.0 Mist.
2014-Nov-26 08:30 110 4 2.7 3.0 Mist.
2014-Nov-26 08:00 080 1 2.7 2.0 Mist.
2014-Nov-26 07:30 2.2 1.0 Mist.
2014-Nov-26 07:00 260 0 2.2-0.0 Mist.
2014-Nov-26 06:30 2.2-0.0 Mist.
2014-Nov-26 06:00 2.2-1.0 Mist.
2014-Nov-26 05:30 3.2-1.0
2014-Nov-26 05:00 5.4-1.0
2014-Nov-26 04:30 5.4-0.0
2014-Nov-26 04:00 5.4-0.0
2014-Nov-26 03:30 5.4-0.0
2014-Nov-26 03:00 5.4-0.0
2014-Nov-26 02:30 5.4 2.0
2014-Nov-26 02:00 5.4 3.0
2014-Nov-26 01:30 5.4 3.0
2014-Nov-26 01:00 5.4 3.0
2014-Nov-26 00:30 5.4 3.0
2014-Nov-26 00:00 5.4 3.0
2014-Nov-25 23:30 5.4 4.0
2014-Nov-25 23:00 5.4 4.0
2014-Nov-25 22:30 5.4 4.0
2014-Nov-25 22:00 5.4 3.0
2014-Nov-25 21:30 5.4 4.0
2014-Nov-25 21:00 5.4 4.0
2014-Nov-25 20:30 5.4 4.0
2014-Nov-25 20:00 5.4 4.0
2014-Nov-25 19:30 5.4 4.0
2014-Nov-25 19:00 140 3 5.4 4.0
2014-Nov-25 18:30 140 4 5.4 4.0
2014-Nov-25 18:00 130 2 5.4 4.0